sensor_id;sensor_type;location;lat;lon;timestamp;P1;durP1;ratioP1;P2;durP2;ratioP2
69954;SDS011;57279;55.912;37.490;2022-11-20T00:00:53;18.30;;;6.43;;
69954;SDS011;57279;55.912;37.490;2022-11-20T00:03:19;17.63;;;6.57;;
69954;SDS011;57279;55.912;37.490;2022-11-20T00:05:45;18.88;;;6.72;;
69954;SDS011;57279;55.912;37.490;2022-11-20T00:08:11;17.20;;;6.90;;
69954;SDS011;57279;55.912;37.490;2022-11-20T00:10:37;19.17;;;7.03;;
69954;SDS011;57279;55.912;37.490;2022-11-20T00:13:03;19.10;;;6.90;;
69954;SDS011;57279;55.912;37.490;2022-11-20T00:15:29;18.67;;;6.82;;
69954;SDS011;57279;55.912;37.490;2022-11-20T00:17:55;19.25;;;7.32;;
69954;SDS011;57279;55.912;37.490;2022-11-20T00:20:20;18.77;;;6.93;;
69954;SDS011;57279;55.912;37.490;2022-11-20T00:22:46;21.13;;;6.70;;
69954;SDS011;57279;55.912;37.490;2022-11-20T00:25:12;18.23;;;6.50;;
69954;SDS011;57279;55.912;37.490;2022-11-20T00:27:38;18.88;;;6.25;;
69954;SDS011;57279;55.912;37.490;2022-11-20T00:30:04;18.52;;;6.43;;
69954;SDS011;57279;55.912;37.490;2022-11-20T00:32:30;21.45;;;7.38;;
69954;SDS011;57279;55.912;37.490;2022-11-20T00:34:56;21.05;;;7.10;;
69954;SDS011;57279;55.912;37.490;2022-11-20T00:37:22;17.60;;;7.35;;
69954;SDS011;57279;55.912;37.490;2022-11-20T00:39:47;18.90;;;6.40;;
69954;SDS011;57279;55.912;37.490;2022-11-20T00:42:13;17.77;;;6.88;;
69954;SDS011;57279;55.912;37.490;2022-11-20T00:44:39;15.52;;;6.30;;
69954;SDS011;57279;55.912;37.490;2022-11-20T00:47:04;18.80;;;7.00;;
69954;SDS011;57279;55.912;37.490;2022-11-20T00:49:30;18.90;;;6.82;;
69954;SDS011;57279;55.912;37.490;2022-11-20T00:51:56;17.02;;;6.45;;
69954;SDS011;57279;55.912;37.490;2022-11-20T00:54:21;18.10;;;6.20;;
69954;SDS011;57279;55.912;37.490;2022-11-20T00:56:47;19.13;;;6.55;;
69954;SDS011;57279;55.912;37.490;2022-11-20T00:59:13;16.88;;;6.53;;
69954;SDS011;57279;55.912;37.490;2022-11-20T01:01:38;19.27;;;7.15;;
69954;SDS011;57279;55.912;37.490;2022-11-20T01:04:04;17.67;;;5.80;;
69954;SDS011;57279;55.912;37.490;2022-11-20T01:06:34;16.80;;;6.90;;
69954;SDS011;57279;55.912;37.490;2022-11-20T01:09:03;17.30;;;6.38;;
69954;SDS011;57279;55.912;37.490;2022-11-20T01:11:34;16.20;;;5.93;;
69954;SDS011;57279;55.912;37.490;2022-11-20T01:14:02;18.95;;;5.75;;
69954;SDS011;57279;55.912;37.490;2022-11-20T01:16:31;16.85;;;5.38;;
69954;SDS011;57279;55.912;37.490;2022-11-20T01:18:59;18.75;;;6.18;;
69954;SDS011;57279;55.912;37.490;2022-11-20T01:21:28;14.68;;;5.00;;
69954;SDS011;57279;55.912;37.490;2022-11-20T01:23:55;14.60;;;5.00;;
69954;SDS011;57279;55.912;37.490;2022-11-20T01:26:23;16.38;;;5.53;;
69954;SDS011;57279;55.912;37.490;2022-11-20T01:28:50;15.23;;;5.65;;
69954;SDS011;57279;55.912;37.490;2022-11-20T01:31:20;18.23;;;6.00;;
69954;SDS011;57279;55.912;37.490;2022-11-20T01:33:49;13.43;;;5.22;;
69954;SDS011;57279;55.912;37.490;2022-11-20T01:36:15;13.63;;;5.07;;
69954;SDS011;57279;55.912;37.490;2022-11-20T01:38:42;12.75;;;5.00;;
69954;SDS011;57279;55.912;37.490;2022-11-20T01:41:08;16.67;;;5.47;;
69954;SDS011;57279;55.912;37.490;2022-11-20T01:43:56;13.90;;;5.10;;
69954;SDS011;57279;55.912;37.490;2022-11-20T01:46:22;14.85;;;5.18;;
69954;SDS011;57279;55.912;37.490;2022-11-20T01:48:49;13.30;;;5.57;;
69954;SDS011;57279;55.912;37.490;2022-11-20T01:51:20;14.18;;;4.93;;
69954;SDS011;57279;55.912;37.490;2022-11-20T01:53:50;11.82;;;4.22;;
69954;SDS011;57279;55.912;37.490;2022-11-20T01:56:19;13.43;;;5.18;;
69954;SDS011;57279;55.912;37.490;2022-11-20T01:58:47;16.30;;;5.03;;
69954;SDS011;57279;55.912;37.490;2022-11-20T02:01:17;13.73;;;5.20;;
69954;SDS011;57279;55.912;37.490;2022-11-20T02:03:42;15.48;;;5.40;;
69954;SDS011;57279;55.912;37.490;2022-11-20T02:09:00;15.20;;;5.75;;
69954;SDS011;57279;55.912;37.490;2022-11-20T02:11:26;14.32;;;5.22;;
69954;SDS011;57279;55.912;37.490;2022-11-20T02:13:51;14.60;;;5.35;;
69954;SDS011;57279;55.912;37.490;2022-11-20T02:18:56;14.68;;;5.15;;
69954;SDS011;57279;55.912;37.490;2022-11-20T02:23:58;13.10;;;4.65;;
69954;SDS011;57279;55.912;37.490;2022-11-20T02:26:25;14.38;;;5.50;;
69954;SDS011;57279;55.912;37.490;2022-11-20T02:28:53;14.52;;;5.30;;
69954;SDS011;57279;55.912;37.490;2022-11-20T02:31:19;14.73;;;5.20;;
69954;SDS011;57279;55.912;37.490;2022-11-20T02:33:45;15.82;;;5.35;;
69954;SDS011;57279;55.912;37.490;2022-11-20T02:36:11;12.93;;;4.72;;
69954;SDS011;57279;55.912;37.490;2022-11-20T02:38:40;18.17;;;5.90;;
69954;SDS011;57279;55.912;37.490;2022-11-20T02:41:07;17.25;;;5.75;;
69954;SDS011;57279;55.912;37.490;2022-11-20T02:43:32;14.65;;;5.15;;
69954;SDS011;57279;55.912;37.490;2022-11-20T02:45:58;15.57;;;5.32;;
69954;SDS011;57279;55.912;37.490;2022-11-20T02:48:24;17.15;;;6.30;;
69954;SDS011;57279;55.912;37.490;2022-11-20T02:50:49;13.80;;;5.10;;
69954;SDS011;57279;55.912;37.490;2022-11-20T02:53:15;15.07;;;5.35;;
69954;SDS011;57279;55.912;37.490;2022-11-20T02:55:41;14.02;;;5.10;;
69954;SDS011;57279;55.912;37.490;2022-11-20T02:58:06;15.30;;;5.22;;
69954;SDS011;57279;55.912;37.490;2022-11-20T03:00:32;14.82;;;4.85;;
69954;SDS011;57279;55.912;37.490;2022-11-20T03:02:58;16.38;;;5.40;;
69954;SDS011;57279;55.912;37.490;2022-11-20T03:05:27;13.43;;;4.80;;
69954;SDS011;57279;55.912;37.490;2022-11-20T03:07:52;12.02;;;4.97;;
69954;SDS011;57279;55.912;37.490;2022-11-20T03:10:18;15.70;;;5.10;;
69954;SDS011;57279;55.912;37.490;2022-11-20T03:12:44;13.60;;;4.40;;
69954;SDS011;57279;55.912;37.490;2022-11-20T03:15:10;13.82;;;4.60;;
69954;SDS011;57279;55.912;37.490;2022-11-20T03:17:36;14.13;;;4.78;;
69954;SDS011;57279;55.912;37.490;2022-11-20T03:20:02;12.48;;;4.30;;
69954;SDS011;57279;55.912;37.490;2022-11-20T03:22:29;15.20;;;5.05;;
69954;SDS011;57279;55.912;37.490;2022-11-20T03:24:55;15.88;;;4.80;;
69954;SDS011;57279;55.912;37.490;2022-11-20T03:27:22;17.05;;;5.25;;
69954;SDS011;57279;55.912;37.490;2022-11-20T03:29:47;14.27;;;4.68;;
69954;SDS011;57279;55.912;37.490;2022-11-20T03:32:16;14.68;;;5.20;;
69954;SDS011;57279;55.912;37.490;2022-11-20T03:34:42;13.30;;;4.50;;
69954;SDS011;57279;55.912;37.490;2022-11-20T03:37:07;14.88;;;4.85;;
69954;SDS011;57279;55.912;37.490;2022-11-20T03:39:33;14.23;;;5.20;;
69954;SDS011;57279;55.912;37.490;2022-11-20T03:41:59;14.85;;;4.95;;
69954;SDS011;57279;55.912;37.490;2022-11-20T03:44:25;13.85;;;4.75;;
69954;SDS011;57279;55.912;37.490;2022-11-20T03:46:50;12.68;;;4.20;;
69954;SDS011;57279;55.912;37.490;2022-11-20T03:49:16;13.63;;;4.60;;
69954;SDS011;57279;55.912;37.490;2022-11-20T03:51:41;14.15;;;5.00;;
69954;SDS011;57279;55.912;37.490;2022-11-20T03:54:07;16.80;;;5.65;;
69954;SDS011;57279;55.912;37.490;2022-11-20T03:56:37;13.00;;;4.90;;
69954;SDS011;57279;55.912;37.490;2022-11-20T03:59:03;13.77;;;4.88;;
69954;SDS011;57279;55.912;37.490;2022-11-20T04:01:30;14.45;;;5.05;;
69954;SDS011;57279;55.912;37.490;2022-11-20T04:03:59;15.02;;;5.55;;
69954;SDS011;57279;55.912;37.490;2022-11-20T04:06:26;14.98;;;5.45;;
69954;SDS011;57279;55.912;37.490;2022-11-20T04:08:58;16.70;;;5.80;;
69954;SDS011;57279;55.912;37.490;2022-11-20T04:11:25;14.95;;;5.20;;
69954;SDS011;57279;55.912;37.490;2022-11-20T04:13:55;15.15;;;4.70;;
69954;SDS011;57279;55.912;37.490;2022-11-20T04:16:23;14.35;;;5.43;;
69954;SDS011;57279;55.912;37.490;2022-11-20T04:18:56;15.15;;;5.38;;
69954;SDS011;57279;55.912;37.490;2022-11-20T04:21:24;13.93;;;5.13;;
69954;SDS011;57279;55.912;37.490;2022-11-20T04:23:53;14.55;;;5.13;;
69954;SDS011;57279;55.912;37.490;2022-11-20T04:28:46;15.30;;;5.30;;
69954;SDS011;57279;55.912;37.490;2022-11-20T04:31:15;14.27;;;5.10;;
69954;SDS011;57279;55.912;37.490;2022-11-20T04:33:45;15.43;;;5.32;;
69954;SDS011;57279;55.912;37.490;2022-11-20T04:36:27;15.27;;;5.85;;
69954;SDS011;57279;55.912;37.490;2022-11-20T04:38:57;18.67;;;6.65;;
69954;SDS011;57279;55.912;37.490;2022-11-20T04:41:26;18.02;;;5.85;;
69954;SDS011;57279;55.912;37.490;2022-11-20T04:43:55;17.85;;;5.95;;
69954;SDS011;57279;55.912;37.490;2022-11-20T04:46:25;16.95;;;5.90;;
69954;SDS011;57279;55.912;37.490;2022-11-20T04:48:52;15.15;;;5.63;;
69954;SDS011;57279;55.912;37.490;2022-11-20T04:51:18;16.85;;;6.07;;
69954;SDS011;57279;55.912;37.490;2022-11-20T04:53:45;18.20;;;6.82;;
69954;SDS011;57279;55.912;37.490;2022-11-20T04:56:11;19.45;;;6.00;;
69954;SDS011;57279;55.912;37.490;2022-11-20T04:58:38;18.08;;;5.85;;
69954;SDS011;57279;55.912;37.490;2022-11-20T05:01:08;16.60;;;6.53;;
69954;SDS011;57279;55.912;37.490;2022-11-20T05:03:35;16.83;;;5.97;;
69954;SDS011;57279;55.912;37.490;2022-11-20T05:06:02;17.25;;;6.30;;
69954;SDS011;57279;55.912;37.490;2022-11-20T05:08:30;17.77;;;6.20;;
69954;SDS011;57279;55.912;37.490;2022-11-20T05:11:07;19.10;;;6.10;;
69954;SDS011;57279;55.912;37.490;2022-11-20T05:13:35;20.23;;;6.65;;
69954;SDS011;57279;55.912;37.490;2022-11-20T05:16:05;18.88;;;6.53;;
69954;SDS011;57279;55.912;37.490;2022-11-20T05:18:33;16.75;;;6.75;;
69954;SDS011;57279;55.912;37.490;2022-11-20T05:21:00;19.05;;;6.90;;
69954;SDS011;57279;55.912;37.490;2022-11-20T05:23:28;21.92;;;7.00;;
69954;SDS011;57279;55.912;37.490;2022-11-20T05:25:58;20.08;;;6.82;;
69954;SDS011;57279;55.912;37.490;2022-11-20T05:28:24;20.10;;;7.13;;
69954;SDS011;57279;55.912;37.490;2022-11-20T05:30:52;20.55;;;7.75;;
69954;SDS011;57279;55.912;37.490;2022-11-20T05:35:44;18.38;;;6.75;;
69954;SDS011;57279;55.912;37.490;2022-11-20T05:38:10;19.80;;;7.55;;
69954;SDS011;57279;55.912;37.490;2022-11-20T05:40:36;20.50;;;8.18;;
69954;SDS011;57279;55.912;37.490;2022-11-20T05:43:02;20.45;;;7.38;;
69954;SDS011;57279;55.912;37.490;2022-11-20T05:45:28;20.52;;;7.43;;
69954;SDS011;57279;55.912;37.490;2022-11-20T05:47:57;20.02;;;7.97;;
69954;SDS011;57279;55.912;37.490;2022-11-20T05:50:25;19.25;;;7.55;;
69954;SDS011;57279;55.912;37.490;2022-11-20T05:52:50;22.23;;;7.60;;
69954;SDS011;57279;55.912;37.490;2022-11-20T05:55:16;24.65;;;8.27;;
69954;SDS011;57279;55.912;37.490;2022-11-20T05:57:42;21.67;;;7.35;;
69954;SDS011;57279;55.912;37.490;2022-11-20T06:00:07;25.55;;;8.15;;
69954;SDS011;57279;55.912;37.490;2022-11-20T06:02:34;24.58;;;9.38;;
69954;SDS011;57279;55.912;37.490;2022-11-20T06:05:01;25.13;;;8.60;;
69954;SDS011;57279;55.912;37.490;2022-11-20T06:07:28;23.75;;;8.32;;
69954;SDS011;57279;55.912;37.490;2022-11-20T06:09:54;17.85;;;7.70;;
69954;SDS011;57279;55.912;37.490;2022-11-20T06:12:20;21.60;;;7.45;;
69954;SDS011;57279;55.912;37.490;2022-11-20T06:14:45;18.05;;;6.72;;
69954;SDS011;57279;55.912;37.490;2022-11-20T06:17:11;17.48;;;6.90;;
69954;SDS011;57279;55.912;37.490;2022-11-20T06:19:37;17.40;;;6.43;;
69954;SDS011;57279;55.912;37.490;2022-11-20T06:22:02;18.48;;;7.10;;
69954;SDS011;57279;55.912;37.490;2022-11-20T06:24:29;18.20;;;7.32;;
69954;SDS011;57279;55.912;37.490;2022-11-20T06:26:55;17.80;;;6.57;;
69954;SDS011;57279;55.912;37.490;2022-11-20T06:29:23;17.17;;;7.10;;
69954;SDS011;57279;55.912;37.490;2022-11-20T06:31:48;23.13;;;7.00;;
69954;SDS011;57279;55.912;37.490;2022-11-20T06:34:14;18.42;;;7.40;;
69954;SDS011;57279;55.912;37.490;2022-11-20T06:36:46;21.70;;;7.28;;
69954;SDS011;57279;55.912;37.490;2022-11-20T06:39:13;17.40;;;7.32;;
69954;SDS011;57279;55.912;37.490;2022-11-20T06:41:41;19.63;;;7.07;;
69954;SDS011;57279;55.912;37.490;2022-11-20T06:44:08;22.27;;;9.10;;
69954;SDS011;57279;55.912;37.490;2022-11-20T06:46:34;19.63;;;7.35;;
69954;SDS011;57279;55.912;37.490;2022-11-20T06:49:03;18.63;;;7.13;;
69954;SDS011;57279;55.912;37.490;2022-11-20T06:51:32;18.38;;;7.88;;
69954;SDS011;57279;55.912;37.490;2022-11-20T06:53:59;18.55;;;7.50;;
69954;SDS011;57279;55.912;37.490;2022-11-20T06:56:26;19.27;;;7.57;;
69954;SDS011;57279;55.912;37.490;2022-11-20T06:58:57;22.73;;;7.65;;
69954;SDS011;57279;55.912;37.490;2022-11-20T07:01:24;20.27;;;7.38;;
69954;SDS011;57279;55.912;37.490;2022-11-20T07:03:54;21.58;;;8.85;;
69954;SDS011;57279;55.912;37.490;2022-11-20T07:06:21;20.08;;;7.65;;
69954;SDS011;57279;55.912;37.490;2022-11-20T07:08:52;17.40;;;7.53;;
69954;SDS011;57279;55.912;37.490;2022-11-20T07:11:31;19.63;;;7.25;;
69954;SDS011;57279;55.912;37.490;2022-11-20T07:14:02;18.83;;;7.57;;
69954;SDS011;57279;55.912;37.490;2022-11-20T07:16:40;18.25;;;7.22;;
69954;SDS011;57279;55.912;37.490;2022-11-20T07:19:14;18.17;;;7.32;;
69954;SDS011;57279;55.912;37.490;2022-11-20T07:21:51;18.95;;;7.63;;
69954;SDS011;57279;55.912;37.490;2022-11-20T07:24:18;19.13;;;7.53;;
69954;SDS011;57279;55.912;37.490;2022-11-20T07:26:48;16.77;;;6.78;;
69954;SDS011;57279;55.912;37.490;2022-11-20T07:29:16;19.58;;;7.75;;
69954;SDS011;57279;55.912;37.490;2022-11-20T07:31:43;20.25;;;7.85;;
69954;SDS011;57279;55.912;37.490;2022-11-20T07:34:10;17.25;;;7.20;;
69954;SDS011;57279;55.912;37.490;2022-11-20T07:36:39;23.10;;;7.78;;
69954;SDS011;57279;55.912;37.490;2022-11-20T07:39:16;19.30;;;7.65;;
69954;SDS011;57279;55.912;37.490;2022-11-20T07:41:43;19.67;;;7.95;;
69954;SDS011;57279;55.912;37.490;2022-11-20T07:44:10;16.75;;;6.68;;
69954;SDS011;57279;55.912;37.490;2022-11-20T07:46:36;22.73;;;8.18;;
69954;SDS011;57279;55.912;37.490;2022-11-20T07:49:06;19.38;;;7.97;;
69954;SDS011;57279;55.912;37.490;2022-11-20T07:51:33;20.25;;;7.85;;
69954;SDS011;57279;55.912;37.490;2022-11-20T07:53:58;18.85;;;7.38;;
69954;SDS011;57279;55.912;37.490;2022-11-20T07:56:24;19.05;;;7.07;;
69954;SDS011;57279;55.912;37.490;2022-11-20T07:58:50;20.25;;;8.20;;
69954;SDS011;57279;55.912;37.490;2022-11-20T08:01:15;23.10;;;8.15;;
69954;SDS011;57279;55.912;37.490;2022-11-20T08:03:41;22.48;;;7.38;;
69954;SDS011;57279;55.912;37.490;2022-11-20T08:06:07;19.80;;;7.90;;
69954;SDS011;57279;55.912;37.490;2022-11-20T08:08:33;20.85;;;8.13;;
69954;SDS011;57279;55.912;37.490;2022-11-20T08:10:58;18.92;;;7.35;;
69954;SDS011;57279;55.912;37.490;2022-11-20T08:13:43;19.25;;;7.40;;
69954;SDS011;57279;55.912;37.490;2022-11-20T08:16:27;19.85;;;8.27;;
69954;SDS011;57279;55.912;37.490;2022-11-20T08:18:53;20.42;;;8.13;;
69954;SDS011;57279;55.912;37.490;2022-11-20T08:21:19;23.42;;;8.85;;
69954;SDS011;57279;55.912;37.490;2022-11-20T08:23:45;23.20;;;8.90;;
69954;SDS011;57279;55.912;37.490;2022-11-20T08:26:11;21.42;;;8.13;;
69954;SDS011;57279;55.912;37.490;2022-11-20T08:28:37;20.50;;;8.27;;
69954;SDS011;57279;55.912;37.490;2022-11-20T08:31:02;26.35;;;9.10;;
69954;SDS011;57279;55.912;37.490;2022-11-20T08:33:29;21.80;;;8.38;;
69954;SDS011;57279;55.912;37.490;2022-11-20T08:36:01;21.40;;;8.40;;
69954;SDS011;57279;55.912;37.490;2022-11-20T08:38:28;23.60;;;8.30;;
69954;SDS011;57279;55.912;37.490;2022-11-20T08:40:58;22.30;;;9.57;;
69954;SDS011;57279;55.912;37.490;2022-11-20T08:43:44;23.25;;;9.07;;
69954;SDS011;57279;55.912;37.490;2022-11-20T08:46:10;22.08;;;8.80;;
69954;SDS011;57279;55.912;37.490;2022-11-20T08:48:36;25.63;;;10.27;;
69954;SDS011;57279;55.912;37.490;2022-11-20T08:51:02;23.67;;;8.73;;
69954;SDS011;57279;55.912;37.490;2022-11-20T08:53:27;27.75;;;9.07;;
69954;SDS011;57279;55.912;37.490;2022-11-20T08:55:53;24.05;;;9.68;;
69954;SDS011;57279;55.912;37.490;2022-11-20T08:58:19;22.70;;;9.15;;
69954;SDS011;57279;55.912;37.490;2022-11-20T09:00:44;25.10;;;9.82;;
69954;SDS011;57279;55.912;37.490;2022-11-20T09:03:10;25.33;;;9.73;;
69954;SDS011;57279;55.912;37.490;2022-11-20T09:05:38;23.10;;;9.25;;
69954;SDS011;57279;55.912;37.490;2022-11-20T09:08:04;24.20;;;9.35;;
69954;SDS011;57279;55.912;37.490;2022-11-20T09:10:30;21.85;;;9.30;;
69954;SDS011;57279;55.912;37.490;2022-11-20T09:12:55;20.95;;;9.10;;
69954;SDS011;57279;55.912;37.490;2022-11-20T09:15:31;22.77;;;9.50;;
69954;SDS011;57279;55.912;37.490;2022-11-20T09:18:01;25.27;;;9.52;;
69954;SDS011;57279;55.912;37.490;2022-11-20T09:20:28;25.23;;;9.80;;
69954;SDS011;57279;55.912;37.490;2022-11-20T09:22:55;31.08;;;9.90;;
69954;SDS011;57279;55.912;37.490;2022-11-20T09:25:21;26.30;;;9.02;;
69954;SDS011;57279;55.912;37.490;2022-11-20T09:27:47;24.17;;;8.88;;
69954;SDS011;57279;55.912;37.490;2022-11-20T09:30:14;26.50;;;9.48;;
69954;SDS011;57279;55.912;37.490;2022-11-20T09:32:40;27.15;;;10.60;;
69954;SDS011;57279;55.912;37.490;2022-11-20T09:35:07;28.70;;;10.27;;
69954;SDS011;57279;55.912;37.490;2022-11-20T09:37:33;26.80;;;10.07;;
69954;SDS011;57279;55.912;37.490;2022-11-20T09:47:49;31.35;;;10.30;;
69954;SDS011;57279;55.912;37.490;2022-11-20T09:50:49;30.45;;;11.15;;
69954;SDS011;57279;55.912;37.490;2022-11-20T09:56:19;41.00;;;11.73;;
69954;SDS011;57279;55.912;37.490;2022-11-20T09:58:47;40.25;;;12.90;;
69954;SDS011;57279;55.912;37.490;2022-11-20T10:01:19;36.17;;;13.48;;
69954;SDS011;57279;55.912;37.490;2022-11-20T10:07:02;30.88;;;11.77;;
69954;SDS011;57279;55.912;37.490;2022-11-20T10:09:30;31.52;;;12.82;;
69954;SDS011;57279;55.912;37.490;2022-11-20T10:12:09;34.50;;;12.80;;
69954;SDS011;57279;55.912;37.490;2022-11-20T10:20:29;34.33;;;12.60;;
69954;SDS011;57279;55.912;37.490;2022-11-20T10:23:14;34.70;;;12.52;;
69954;SDS011;57279;55.912;37.490;2022-11-20T10:30:57;35.35;;;12.48;;
69954;SDS011;57279;55.912;37.490;2022-11-20T10:33:29;40.72;;;14.00;;
69954;SDS011;57279;55.912;37.490;2022-11-20T10:38:53;33.58;;;11.98;;
69954;SDS011;57279;55.912;37.490;2022-11-20T10:41:25;34.25;;;12.75;;
69954;SDS011;57279;55.912;37.490;2022-11-20T10:44:20;29.55;;;11.15;;
69954;SDS011;57279;55.912;37.490;2022-11-20T10:47:13;35.47;;;13.25;;
69954;SDS011;57279;55.912;37.490;2022-11-20T10:49:41;32.33;;;12.35;;
69954;SDS011;57279;55.912;37.490;2022-11-20T11:00:32;33.45;;;12.45;;
69954;SDS011;57279;55.912;37.490;2022-11-20T11:02:57;34.33;;;12.60;;
69954;SDS011;57279;55.912;37.490;2022-11-20T11:05:51;33.28;;;12.10;;
69954;SDS011;57279;55.912;37.490;2022-11-20T11:08:37;38.15;;;13.93;;
69954;SDS011;57279;55.912;37.490;2022-11-20T11:14:06;31.10;;;12.65;;
69954;SDS011;57279;55.912;37.490;2022-11-20T11:16:33;31.90;;;12.60;;
69954;SDS011;57279;55.912;37.490;2022-11-20T11:19:06;35.00;;;13.00;;
69954;SDS011;57279;55.912;37.490;2022-11-20T11:21:36;33.95;;;12.60;;
69954;SDS011;57279;55.912;37.490;2022-11-20T11:24:15;33.85;;;12.50;;
69954;SDS011;57279;55.912;37.490;2022-11-20T11:29:18;33.15;;;12.75;;
69954;SDS011;57279;55.912;37.490;2022-11-20T11:31:44;32.08;;;12.30;;
69954;SDS011;57279;55.912;37.490;2022-11-20T11:34:14;34.33;;;11.20;;
69954;SDS011;57279;55.912;37.490;2022-11-20T11:36:41;33.38;;;10.27;;
69954;SDS011;57279;55.912;37.490;2022-11-20T11:39:15;30.17;;;10.13;;
69954;SDS011;57279;55.912;37.490;2022-11-20T11:41:42;27.63;;;9.63;;
69954;SDS011;57279;55.912;37.490;2022-11-20T11:44:23;27.60;;;10.38;;
69954;SDS011;57279;55.912;37.490;2022-11-20T11:47:32;25.88;;;9.05;;
69954;SDS011;57279;55.912;37.490;2022-11-20T11:52:39;25.23;;;9.10;;
69954;SDS011;57279;55.912;37.490;2022-11-20T11:55:09;23.50;;;9.02;;
69954;SDS011;57279;55.912;37.490;2022-11-20T11:57:46;20.77;;;8.10;;
69954;SDS011;57279;55.912;37.490;2022-11-20T12:00:21;21.10;;;7.32;;
69954;SDS011;57279;55.912;37.490;2022-11-20T12:05:17;21.65;;;8.65;;
69954;SDS011;57279;55.912;37.490;2022-11-20T12:13:40;20.83;;;7.95;;
69954;SDS011;57279;55.912;37.490;2022-11-20T12:16:12;22.80;;;8.52;;
69954;SDS011;57279;55.912;37.490;2022-11-20T12:18:39;19.70;;;7.40;;
69954;SDS011;57279;55.912;37.490;2022-11-20T12:21:20;22.80;;;8.93;;
69954;SDS011;57279;55.912;37.490;2022-11-20T12:24:11;23.73;;;7.82;;
69954;SDS011;57279;55.912;37.490;2022-11-20T12:30:02;16.65;;;6.18;;
69954;SDS011;57279;55.912;37.490;2022-11-20T12:47:21;22.10;;;7.50;;
69954;SDS011;57279;55.912;37.490;2022-11-20T13:07:01;26.85;;;9.88;;
69954;SDS011;57279;55.912;37.490;2022-11-20T13:09:28;22.48;;;9.20;;
69954;SDS011;57279;55.912;37.490;2022-11-20T13:12:02;23.38;;;9.23;;
69954;SDS011;57279;55.912;37.490;2022-11-20T13:17:28;21.60;;;8.02;;
69954;SDS011;57279;55.912;37.490;2022-11-20T13:20:01;22.63;;;9.52;;
69954;SDS011;57279;55.912;37.490;2022-11-20T13:22:29;22.77;;;8.93;;
69954;SDS011;57279;55.912;37.490;2022-11-20T13:25:09;22.98;;;9.45;;
69954;SDS011;57279;55.912;37.490;2022-11-20T13:27:35;25.40;;;9.60;;
69954;SDS011;57279;55.912;37.490;2022-11-20T13:30:13;29.55;;;11.02;;
69954;SDS011;57279;55.912;37.490;2022-11-20T13:32:49;29.83;;;11.82;;
69954;SDS011;57279;55.912;37.490;2022-11-20T13:35:25;29.05;;;12.32;;
69954;SDS011;57279;55.912;37.490;2022-11-20T13:40:27;24.65;;;10.60;;
69954;SDS011;57279;55.912;37.490;2022-11-20T13:45:29;42.88;;;14.65;;
69954;SDS011;57279;55.912;37.490;2022-11-20T13:47:57;31.83;;;12.90;;
69954;SDS011;57279;55.912;37.490;2022-11-20T13:51:15;26.67;;;11.15;;
69954;SDS011;57279;55.912;37.490;2022-11-20T13:56:05;24.15;;;9.05;;
69954;SDS011;57279;55.912;37.490;2022-11-20T13:58:46;22.45;;;8.00;;
69954;SDS011;57279;55.912;37.490;2022-11-20T14:01:26;23.17;;;9.15;;
69954;SDS011;57279;55.912;37.490;2022-11-20T14:03:55;23.67;;;8.50;;
69954;SDS011;57279;55.912;37.490;2022-11-20T14:06:30;22.40;;;8.20;;
69954;SDS011;57279;55.912;37.490;2022-11-20T14:08:58;23.95;;;8.93;;
69954;SDS011;57279;55.912;37.490;2022-11-20T14:11:27;21.40;;;8.15;;
69954;SDS011;57279;55.912;37.490;2022-11-20T14:14:04;21.95;;;8.57;;
69954;SDS011;57279;55.912;37.490;2022-11-20T14:16:41;20.30;;;8.27;;
69954;SDS011;57279;55.912;37.490;2022-11-20T14:19:28;19.80;;;8.05;;
69954;SDS011;57279;55.912;37.490;2022-11-20T14:25:04;23.27;;;8.77;;
69954;SDS011;57279;55.912;37.490;2022-11-20T14:27:32;23.80;;;9.20;;
69954;SDS011;57279;55.912;37.490;2022-11-20T14:30:02;23.65;;;9.07;;
69954;SDS011;57279;55.912;37.490;2022-11-20T14:32:29;19.92;;;7.93;;
69954;SDS011;57279;55.912;37.490;2022-11-20T14:34:58;19.45;;;7.53;;
69954;SDS011;57279;55.912;37.490;2022-11-20T14:37:33;23.38;;;7.45;;
69954;SDS011;57279;55.912;37.490;2022-11-20T14:40:01;19.83;;;7.18;;
69954;SDS011;57279;55.912;37.490;2022-11-20T14:42:28;17.40;;;6.88;;
69954;SDS011;57279;55.912;37.490;2022-11-20T14:44:56;17.55;;;6.45;;
69954;SDS011;57279;55.912;37.490;2022-11-20T14:47:25;25.17;;;8.48;;
69954;SDS011;57279;55.912;37.490;2022-11-20T14:49:54;25.48;;;8.57;;
69954;SDS011;57279;55.912;37.490;2022-11-20T14:52:22;21.50;;;8.13;;
69954;SDS011;57279;55.912;37.490;2022-11-20T14:54:52;20.05;;;7.18;;
69954;SDS011;57279;55.912;37.490;2022-11-20T14:57:20;20.80;;;8.00;;
69954;SDS011;57279;55.912;37.490;2022-11-20T15:02:40;18.80;;;7.65;;
69954;SDS011;57279;55.912;37.490;2022-11-20T15:05:06;20.00;;;8.63;;
69954;SDS011;57279;55.912;37.490;2022-11-20T15:07:34;18.83;;;7.50;;
69954;SDS011;57279;55.912;37.490;2022-11-20T15:10:04;20.90;;;8.13;;
69954;SDS011;57279;55.912;37.490;2022-11-20T15:12:33;19.25;;;7.70;;
69954;SDS011;57279;55.912;37.490;2022-11-20T15:15:03;24.02;;;9.02;;
69954;SDS011;57279;55.912;37.490;2022-11-20T15:17:31;21.85;;;9.10;;
69954;SDS011;57279;55.912;37.490;2022-11-20T15:20:01;23.85;;;8.80;;
69954;SDS011;57279;55.912;37.490;2022-11-20T15:22:31;22.55;;;8.95;;
69954;SDS011;57279;55.912;37.490;2022-11-20T15:24:57;25.40;;;9.52;;
69954;SDS011;57279;55.912;37.490;2022-11-20T15:27:23;27.15;;;10.73;;
69954;SDS011;57279;55.912;37.490;2022-11-20T15:29:49;27.88;;;9.43;;
69954;SDS011;57279;55.912;37.490;2022-11-20T15:32:14;25.83;;;9.98;;
69954;SDS011;57279;55.912;37.490;2022-11-20T15:34:40;24.55;;;9.60;;
69954;SDS011;57279;55.912;37.490;2022-11-20T15:37:06;25.50;;;9.55;;
69954;SDS011;57279;55.912;37.490;2022-11-20T15:39:32;25.45;;;8.85;;
69954;SDS011;57279;55.912;37.490;2022-11-20T15:41:58;24.02;;;9.65;;
69954;SDS011;57279;55.912;37.490;2022-11-20T15:44:24;24.45;;;8.70;;
69954;SDS011;57279;55.912;37.490;2022-11-20T15:46:50;25.42;;;9.18;;
69954;SDS011;57279;55.912;37.490;2022-11-20T15:49:17;19.38;;;7.90;;
69954;SDS011;57279;55.912;37.490;2022-11-20T15:51:45;21.92;;;7.43;;
69954;SDS011;57279;55.912;37.490;2022-11-20T15:54:16;23.83;;;8.05;;
69954;SDS011;57279;55.912;37.490;2022-11-20T15:59:12;21.67;;;9.02;;
69954;SDS011;57279;55.912;37.490;2022-11-20T16:01:40;20.90;;;8.18;;
69954;SDS011;57279;55.912;37.490;2022-11-20T16:04:11;21.20;;;7.95;;
69954;SDS011;57279;55.912;37.490;2022-11-20T16:06:38;28.27;;;8.50;;
69954;SDS011;57279;55.912;37.490;2022-11-20T16:09:04;22.23;;;9.10;;
69954;SDS011;57279;55.912;37.490;2022-11-20T16:11:30;18.90;;;8.07;;
69954;SDS011;57279;55.912;37.490;2022-11-20T16:13:59;17.15;;;6.95;;
69954;SDS011;57279;55.912;37.490;2022-11-20T16:16:44;19.30;;;7.80;;
69954;SDS011;57279;55.912;37.490;2022-11-20T16:19:10;21.00;;;7.80;;
69954;SDS011;57279;55.912;37.490;2022-11-20T16:21:38;22.48;;;8.23;;
69954;SDS011;57279;55.912;37.490;2022-11-20T16:24:07;19.15;;;7.97;;
69954;SDS011;57279;55.912;37.490;2022-11-20T16:26:36;19.90;;;8.27;;
69954;SDS011;57279;55.912;37.490;2022-11-20T16:29:03;21.63;;;8.52;;
69954;SDS011;57279;55.912;37.490;2022-11-20T16:31:30;25.17;;;9.70;;